Blue Oak Ranch Reserve, California Weather observations

Data are for 10 minute period ending at time listed.
 Day   Time   Solar   Ave.   Ave.  Ave.  Vector  Max.   Baro.   Total    
  of    of     Rad.   Air    Rel.  Wind   Wind   Wind  Press.  Precip.   
Year   Day            Temp.  Hum.  Speed  Dir.   Gust                    
2014   (PST)  Kw/m2    F      %     mph   deg.    mph    mb.     in.     
-------------------------------------------------------------------------
 242    2:10   0.00   67.8    24    0.4    82     2.1   946.2    0.00 
 242    2:20   0.00   67.4    24    1.5     2     4.4   946.2    0.00 
 242    2:30   0.00   67.4    25    2.2    16     5.0   946.0    0.00 
 242    2:40   0.00   67.0    26    2.7     6     5.0   946.0    0.00 
 242    2:50   0.00   66.2    26    2.0   297     4.3   946.0    0.00 
 242    3:00   0.00   68.0    26    2.3   344     5.3   945.8    0.00 
 242    3:10   0.00   67.3    26    2.2   308     5.3   945.9    0.00 
 242    3:20   0.00   66.6    28    2.0   325     4.2   946.0    0.00 
 242    3:30   0.00   67.4    27    2.2   345     6.2   945.9    0.00 
 242    3:40   0.00   72.2    26    3.7    13     8.1   945.8    0.00 
 242    3:50   0.00   75.4    25    3.8    12     7.5   945.8    0.00 
 242    4:00   0.00   75.2    26    4.2    11     8.2   946.0    0.00 
 242    4:10   0.00   74.9    26    3.5     8     6.6   946.0    0.00 
 242    4:20   0.00   75.5    26    3.9     6     7.7   946.1    0.00 
 242    4:30   0.00   75.1    28    3.1   352     7.2   946.1    0.00 
 242    4:40   0.00   71.7    30    1.5    12     3.8   946.1    0.00 
 242    4:50   0.00   68.4    34    2.7   293     4.4   946.1    0.00 
 242    5:00   0.00   66.8    35    1.0   308     4.7   946.0    0.00 
 242    5:10   0.00   65.9    35    0.9   303     2.6   945.9    0.00 
 242    5:20   0.00   65.1    35    0.7   299     1.9   946.0    0.00 
 242    5:30   0.00   64.7    36    0.3   104     1.8   946.0    0.00 
 242    5:40   0.01   64.4    36    0.0   128     0.9   946.0    0.00 
 242    5:50   0.02   64.0    37    0.1   189     0.7   946.1    0.00 
 242    6:00   0.03   63.8    37    0.1   135     0.9   946.3    0.00 
 242    6:10   0.04   63.7    37    0.3   270     1.7   946.3    0.00 
 242    6:20   0.04   63.6    38    1.3   292     2.2   946.4    0.00 
 242    6:30   0.06   63.6    38    0.2   305     1.1   946.4    0.00 
 242    6:40   0.08   64.9    36    0.5   298     2.3   946.4    0.00 
 242    6:50   0.16   67.0    35    2.0   296     3.7   946.5    0.00 
 242    7:00   0.19   70.1    32    2.0   287     3.1   946.7    0.00 
 242    7:10   0.22   74.8    27    1.0   275     2.1   946.8    0.00 
 242    7:20   0.13   77.3    25    0.3   282     1.8   947.0    0.00 
 242    7:30   0.12   76.2    27    1.1   290     2.1   947.1    0.00 
 242    7:40   0.13   75.7    28    1.1   288     2.1   947.1    0.00 
 242    7:50   0.14   76.8    25    2.0   283     2.8   947.1    0.00 
 242    8:00   0.16   78.1    23    1.5   273     2.5   947.1    0.00 
 242    8:10   0.28   79.3    20    2.1   260     3.7   947.2    0.00 
 242    8:20   0.43   82.6    17    3.5   261     7.7   947.3    0.00 
 242    8:30   0.43   83.5    15    4.3   268     8.8   947.4    0.00 
 242    8:40   0.39   83.2    15    4.2   284     7.5   947.3    0.00 
 242    8:50   0.48   83.9    15    4.6   270    10.1   947.1    0.00 
 242    9:00   0.56   84.9    14    5.9   278    11.2   947.1    0.00 
 242    9:10   0.59   84.5    15    6.4   307    12.2   947.0    0.00 
 242    9:20   0.62   84.4    18    6.1   293    11.8   946.9    0.00 
 242    9:30   0.61   84.5    20    6.2   271    12.6   946.9    0.00 
 242    9:40   0.67   83.7    21    6.2   247    11.7   946.9    0.00 
 242    9:50   0.68   82.9    21    6.9   237    12.3   947.0    0.00 
 242   10:00   0.69   81.5    22    8.4   226    13.9   947.1    0.00 
 242   10:10   0.71   83.0    22    6.3   238    11.0   947.2    0.00 
 242   10:20   0.73   84.2    21    8.9   284    13.4   947.1    0.00 
 242   10:30   0.74   84.8    21    8.7   278    14.2   947.1    0.00 
 242   10:40   0.76   84.9    23    8.0   285    15.1   947.0    0.00 
 242   10:50   0.77   84.3    24    8.0   273    13.4   947.0    0.00 
 242   11:00   0.78   83.4    27    6.8   257    12.5   947.0    0.00 
 242   11:10   0.79   84.0    24    7.9   258    13.9   947.0    0.00 
 242   11:20   0.80   85.4    20    7.8   257    12.7   947.0    0.00 
 242   11:30   0.80   84.7    23    7.0   248    12.3   947.0    0.00 
 242   11:40   0.81   84.8    23    7.3   250    13.0   947.0    0.00 
 242   11:50   0.81   83.8    22    8.7   251    13.9   947.0    0.00 
 242   12:00   0.81   83.4    21    8.8   243    15.2   946.9    0.00 
 242   12:10   0.81   84.2    19    8.7   281    16.9   946.9    0.00 
 242   12:20   0.81   85.0    18    7.4   269    13.7   946.8    0.00 
 242   12:30   0.82   84.9    17    8.4   282    14.3   946.7    0.00 
 242   12:40   0.82   84.8    17    8.1   288    15.1   946.7    0.00 
 242   12:50   0.79   85.3    17    7.3   284    13.0   946.6    0.00 
 242   13:00   0.80   85.3    17    8.6   288    13.7   946.4    0.00 
 242   13:10   0.80   85.6    17    8.0   279    12.6   946.4    0.00 
 242   13:20   0.79   86.1    18    7.6   280    14.0   946.4    0.00 
 242   13:30   0.78   86.2    18    8.1   236    13.6   946.2    0.00 
 242   13:40   0.76   85.3    19    8.9   235    14.5   946.1    0.00 
 242   13:50   0.75   85.8    17    8.2   278    13.0   946.0    0.00 
 242   14:00   0.73   86.6    14    8.4   291    12.8   946.0    0.00 
 242   14:10   0.72   86.6    16    9.6   282    15.1   946.0    0.00 
 242   14:20   0.69   85.5    19    9.2   280    15.8   946.2    0.00 
 242   14:30   0.68   85.5    21    8.7   288    14.5   946.3    0.00 
 242   14:40   0.65   84.3    22    9.3   296    14.0   946.3    0.00 
 242   14:50   0.63   83.6    20    8.4   299    14.3   946.2    0.00 
 242   15:00   0.61   84.5    18    6.5   284    13.0   946.3    0.00 
 242   15:10   0.58   84.3    19    5.5   289    14.2   946.2    0.00 
 242   15:20   0.56   84.6    19    3.6   277     7.5   946.0    0.00 
 242   15:30   0.53   85.0    17    7.1   282    11.7   946.0    0.00 
 242   15:40   0.51   84.9    18    6.4   278    11.2   946.0    0.00 
 242   15:50   0.48   84.4    18    8.9   270    13.7   946.0    0.00 
 242   16:00   0.45   83.6    20    8.0   289    12.0   946.1    0.00 
 242   16:10   0.42   82.3    22    5.9   307    13.3   946.1    0.00 
 242   16:20   0.39   82.1    22    8.5   283    14.7   946.2    0.00 
 242   16:30   0.36   81.4    23    8.6   285    13.4   946.3    0.00 
 242   16:40   0.33   81.2    22    6.7   284    13.2   946.3    0.00 
 242   16:50   0.30   81.6    22    6.1   282    11.5   946.3    0.00 
 242   17:00   0.27   81.0    23    6.7   302    12.6   946.3    0.00 
 242   17:10   0.24   80.1    24    7.3   298    11.8   946.3    0.00 
 242   17:20   0.21   79.3    24    6.8   309    11.6   946.3    0.00 
 242   17:30   0.18   79.4    23    4.6   304    11.1   946.3    0.00 
 242   17:40   0.15   78.9    25    6.2   306    11.1   946.4    0.00 
 242   17:50   0.13   77.6    26    6.4   298    10.7   946.5    0.00 
 242   18:00   0.10   76.7    26    6.7   299    14.2   946.4    0.00 
 242   18:10   0.07   76.3    26    5.5   294    11.0   946.4    0.00 
 242   18:20   0.04   75.3    28    4.0   290    12.1   946.3    0.00 
 242   18:30   0.01   73.4    31    3.1   247     7.1   946.3    0.00 
 242   18:40   0.01   72.0    32    3.1   249    13.4   946.3    0.00 
 242   18:50   0.01   72.0    31    8.1   302    14.2   946.3    0.00 
 242   19:00   0.00   72.2    30    6.3   306    12.0   946.2    0.00 
 242   19:10   0.00   71.9    30    6.7   299    13.4   946.4    0.00 
 242   19:20   0.00   71.8    30    5.6   306    10.2   946.4    0.00 
 242   19:30   0.00   71.6    30    4.0   308     9.9   946.4    0.00 
 242   19:40   0.00   71.1    32    6.3   302    12.5   946.4    0.00 
 242   19:50   0.00   71.0    34    6.6   296    12.9   946.3    0.00 
 242   20:00   0.00   70.6    36    8.0   305    16.3   946.3    0.00 
 242   20:10   0.00   70.5    37    9.2   312    14.8   946.4    0.00 
 242   20:20   0.00   70.2    38    8.2   312    14.2   946.5    0.00 
 242   20:30   0.00   70.4    38    8.6   310    15.4   946.4    0.00 
 242   20:40   0.00   69.9    39    7.4   310    13.9   946.5    0.00 
 242   20:50   0.00   68.6    41    4.0   312     7.9   946.4    0.00 
 242   21:00   0.00   67.0    43    1.0   279     2.4   946.3    0.00 
 242   21:10   0.00   65.0    45    1.0    60     2.8   946.3    0.00 
 242   21:20   0.00   63.5    46    1.6    44     3.0   946.1    0.00 
 242   21:30   0.00   62.2    49    0.8   310     2.4   946.0    0.00 
 242   21:40   0.00   61.3    50    0.8    67     2.0   946.0    0.00 
 242   21:50   0.00   60.4    51    0.6    92     1.8   945.9    0.00 
 242   22:00   0.00   60.1    51    1.6    59     2.6   946.0    0.00 
 242   22:10   0.00   59.8    53    1.6    35     2.6   946.0    0.00 
 242   22:20   0.00   59.1    53    0.9    18     1.9   946.1    0.00 
 242   22:30   0.00   58.3    55    0.4    38     1.9   946.1    0.00 
 242   22:40   0.00   58.0    57    0.1     1     0.8   946.1    0.00 
 242   22:50   0.00   57.6    57    0.6   296     1.8   946.0    0.00 
 242   23:00   0.00   56.9    59    1.1   299     2.7   946.1    0.00 
 242   23:10   0.00   56.6    61    1.2    58     2.7   946.2    0.00 
 242   23:20   0.00   56.6    61    1.9    97     3.4   946.3    0.00 
 242   23:30   0.00   56.4    62    1.7    64     3.5   946.3    0.00 
 242   23:40   0.00   55.9    62    1.2    27     3.4   946.4    0.00 
 242   23:50   0.00   55.6    64    0.4   354     3.0   946.4    0.00 
 243    0:00   0.00   55.8    64    0.3   350     1.1   946.4    0.00 
 243    0:10   0.00   55.9    64    0.6    48     2.2   946.5    0.00 
 243    0:20   0.00   55.2    65    0.5   274     1.5   946.6    0.00 
 243    0:30   0.00   54.8    66    0.0    44     0.4   946.6    0.00 
 243    0:40   0.00   54.8    66    1.1   315     2.9   946.6    0.00 
 243    0:50   0.00   54.3    67    1.3   294     3.4   946.6    0.00 
 243    1:00   0.00   54.0    67    1.1   303     3.7   946.6    0.00 
 243    1:10   0.00   54.0    67    1.6    71     3.6   946.4    0.00 
 243    1:20   0.00   53.5    67    1.5   295     4.5   946.4    0.00 
 243    1:30   0.00   53.3    67    1.5   312     2.9   946.4    0.00 
 243    1:40   0.00   53.3    68    0.2    44     1.1   946.5    0.00 
 243    1:50   0.00   53.8    66    0.7    57     2.4   946.5    0.00 
 243    2:00   0.00   53.4    66    0.5   202     2.5   946.5    0.00 

Return to Blue Oak Ranch Reserve graphs page.


Western Regional Climate Center,wrcc@dri.edu